createdAt,value
2023-04-04T00:05:00.457Z,2.10
2023-04-04T00:10:02.698Z,1.50
2023-04-04T00:15:05.697Z,1.90
2023-04-04T00:20:10.377Z,1.42
2023-04-04T00:25:12.460Z,1.60
2023-04-04T00:30:14.981Z,1.70
2023-04-04T00:35:18.649Z,1.80
2023-04-04T00:40:20.805Z,1.75
2023-04-04T00:45:25.054Z,1.38
2023-04-04T00:50:28.789Z,1.63
2023-04-04T00:55:30.896Z,1.60
2023-04-04T01:00:34.799Z,1.63
2023-04-04T01:05:38.869Z,1.65
2023-04-04T01:10:42.651Z,1.70
2023-04-04T01:15:45.485Z,1.40
2023-04-04T01:20:56.548Z,1.60
2023-04-04T01:26:04.776Z,1.55
2023-04-04T01:31:13.024Z,1.60
2023-04-04T01:36:22.648Z,1.67
2023-04-04T01:41:30.126Z,1.55
2023-04-04T01:46:32.381Z,1.70
2023-04-04T01:51:35.133Z,1.33
2023-04-04T01:56:38.643Z,1.60
2023-04-04T02:01:40.907Z,1.70
2023-04-04T02:06:43.442Z,1.73
2023-04-04T02:11:46.929Z,1.90
2023-04-04T02:16:49.120Z,1.88
2023-04-04T02:21:51.283Z,1.88
2023-04-04T02:26:54.896Z,1.63
2023-04-04T02:31:56.979Z,1.73
2023-04-04T02:36:59.076Z,1.65
2023-04-04T02:42:02.657Z,1.80
2023-04-04T02:47:06.532Z,1.58
2023-04-04T02:52:08.672Z,1.60
2023-04-04T02:57:12.159Z,1.80
2023-04-04T03:02:17.338Z,1.52
2023-04-04T03:07:19.456Z,1.20
2023-04-04T03:12:22.945Z,1.58
2023-04-04T03:17:26.063Z,1.40
2023-04-04T03:22:30.062Z,1.38
2023-04-04T03:27:33.737Z,1.50
2023-04-04T03:32:37.153Z,2.05
2023-04-04T03:37:39.284Z,1.48
2023-04-04T03:42:42.905Z,1.80
2023-04-04T03:47:45.005Z,1.45
2023-04-04T03:52:47.075Z,1.50
2023-04-04T03:57:51.533Z,1.75
2023-04-04T04:02:53.823Z,1.60
2023-04-04T04:07:56.045Z,1.70
2023-04-04T04:13:00.140Z,1.80
2023-04-04T04:18:02.302Z,1.88
2023-04-04T04:23:04.490Z,1.63
2023-04-04T04:28:08.074Z,1.92
2023-04-04T04:33:10.229Z,2.05
2023-04-04T04:38:12.349Z,2.00
2023-04-04T04:43:16.012Z,1.88
2023-04-04T04:48:18.266Z,1.65
2023-04-04T04:53:20.323Z,1.92
2023-04-04T04:58:24.373Z,1.75
2023-04-04T05:03:27.353Z,2.70
2023-04-04T05:08:29.762Z,1.48
2023-04-04T05:13:33.326Z,2.88
2023-04-04T05:18:35.419Z,2.63
2023-04-04T05:23:37.716Z,2.58
2023-04-04T05:28:41.409Z,9.45
2023-04-04T05:33:43.544Z,9.93
2023-04-04T05:38:45.615Z,6.57
2023-04-04T05:43:49.141Z,8.25
2023-04-04T05:48:51.467Z,8.48
2023-04-04T05:53:53.592Z,4.88
2023-04-04T05:58:57.164Z,3.45
2023-04-04T06:03:59.448Z,2.83
2023-04-04T06:09:01.619Z,3.58
2023-04-04T06:14:05.241Z,3.60
2023-04-04T06:19:07.474Z,3.83
2023-04-04T06:24:09.578Z,2.50
2023-04-04T06:29:13.317Z,3.92
2023-04-04T06:34:15.440Z,2.83
2023-04-04T06:39:17.572Z,2.45
2023-04-04T06:44:21.099Z,2.72
2023-04-04T06:49:23.302Z,2.60
2023-04-04T06:54:25.736Z,2.53
2023-04-04T06:59:29.410Z,3.47
2023-04-04T07:04:31.612Z,3.25
2023-04-04T07:09:33.790Z,3.05
2023-04-04T07:14:37.449Z,3.00
2023-04-04T07:19:39.590Z,2.88
2023-04-04T07:24:41.891Z,3.15
2023-04-04T07:29:45.449Z,3.85
2023-04-04T07:34:47.616Z,2.78
2023-04-04T07:39:49.811Z,2.33
2023-04-04T07:44:53.503Z,2.67
2023-04-04T07:49:55.702Z,2.40
2023-04-04T07:54:57.859Z,2.25
2023-04-04T08:00:01.372Z,2.17
2023-04-04T08:05:03.639Z,1.92
2023-04-04T08:10:07.255Z,1.50
2023-04-04T08:15:13.750Z,1.02
2023-04-04T08:20:16.157Z,1.75
2023-04-04T08:25:18.516Z,1.75
2023-04-04T08:30:22.474Z,1.40
2023-04-04T08:35:24.718Z,1.60
2023-04-04T08:40:26.972Z,1.67
2023-04-04T08:45:32.042Z,1.80
2023-04-04T08:50:36.522Z,1.67
2023-04-04T08:55:41.352Z,1.20
2023-04-04T09:00:45.996Z,1.77
2023-04-04T09:05:52.199Z,1.58
2023-04-04T09:10:54.960Z,1.67
2023-04-04T09:16:00.574Z,1.55
2023-04-04T09:21:09.550Z,1.63
2023-04-04T09:26:11.708Z,1.38
2023-04-04T09:31:15.693Z,1.58
2023-04-04T09:36:18.449Z,1.13
2023-04-04T09:41:20.959Z,1.83
2023-04-04T09:46:24.885Z,1.58
2023-04-04T09:51:34.983Z,1.90
2023-04-04T09:56:37.987Z,1.85
2023-04-04T10:01:42.479Z,1.33
2023-04-04T10:06:47.725Z,1.83
2023-04-04T10:11:49.935Z,1.67
2023-04-04T10:16:57.430Z,1.60
2023-04-04T10:21:59.836Z,3.20
2023-04-04T10:27:02.044Z,1.65
2023-04-04T10:32:09.656Z,1.92
2023-04-04T10:37:19.345Z,1.42
2023-04-04T10:42:22.637Z,1.80
2023-04-04T10:47:27.881Z,1.95
2023-04-04T10:52:32.280Z,2.28
2023-04-04T10:57:38.322Z,1.63
2023-04-04T11:02:55.692Z,1.50
2023-04-04T11:08:08.243Z,1.30
2023-04-04T11:13:18.403Z,1.70
2023-04-04T11:18:33.267Z,1.50
2023-04-04T11:24:15.588Z,1.58
2023-04-04T11:29:41.996Z,1.70
2023-04-04T11:34:45.612Z,2.27
2023-04-04T11:39:49.510Z,2.22
2023-04-04T11:45:06.175Z,1.65
2023-04-04T11:50:10.520Z,1.73
2023-04-04T11:55:17.387Z,2.10
2023-04-04T12:00:30.360Z,2.20
2023-04-04T12:05:35.231Z,1.73
2023-04-04T12:10:39.418Z,1.90
2023-04-04T12:15:43.363Z,1.95
2023-04-04T12:20:51.575Z,1.55
2023-04-04T12:25:55.447Z,1.25
2023-04-04T12:30:57.738Z,1.75
2023-04-04T12:36:02.304Z,1.60
2023-04-04T12:41:09.157Z,1.45
2023-04-04T12:46:11.718Z,1.95
2023-04-04T12:51:15.389Z,1.40
2023-04-04T12:56:17.546Z,1.60
2023-04-04T13:01:21.682Z,1.80
2023-04-04T13:06:28.969Z,1.63
2023-04-04T13:17:02.446Z,1.40
2023-04-04T13:22:08.898Z,2.13
2023-04-04T13:27:11.064Z,2.20
2023-04-04T13:32:13.206Z,2.78
2023-04-04T13:37:16.985Z,1.88
2023-04-04T13:42:21.804Z,2.20
2023-04-04T13:47:24.604Z,2.25
2023-04-04T13:52:28.286Z,1.85
2023-04-04T13:57:30.414Z,2.20
2023-04-04T14:02:32.604Z,2.08
2023-04-04T14:07:37.718Z,2.10
2023-04-04T14:12:40.099Z,2.22
2023-04-04T14:17:43.571Z,2.67
2023-04-04T14:22:47.252Z,2.33
2023-04-04T14:27:49.530Z,2.10
2023-04-04T14:32:51.786Z,2.38
2023-04-04T14:37:56.014Z,2.30
2023-04-04T14:42:58.250Z,2.30
2023-04-04T14:48:00.545Z,2.20
2023-04-04T14:53:04.219Z,2.20
2023-04-04T14:58:06.441Z,2.05
2023-04-04T15:03:08.678Z,1.90
2023-04-04T15:08:12.423Z,2.40
2023-04-04T15:13:14.557Z,3.90
2023-04-04T15:18:17.223Z,2.58
2023-04-04T15:23:20.860Z,2.60
2023-04-04T15:28:22.976Z,2.20
2023-04-04T15:33:25.209Z,2.30
2023-04-04T15:38:28.848Z,2.33
2023-04-04T15:43:33.761Z,2.60
2023-04-04T15:48:35.893Z,2.65
2023-04-04T15:53:39.417Z,3.25
2023-04-04T15:58:41.712Z,2.53
2023-04-04T16:03:43.954Z,2.63
2023-04-04T16:08:47.639Z,3.28
2023-04-04T16:13:49.838Z,2.53
2023-04-04T16:18:52.270Z,2.53
2023-04-04T16:23:55.750Z,3.00
2023-04-04T16:28:57.855Z,2.72
2023-04-04T16:33:59.991Z,2.67
2023-04-04T16:39:03.649Z,2.65
2023-04-04T16:44:05.761Z,2.30
2023-04-04T16:49:07.994Z,2.50
2023-04-04T16:54:14.027Z,2.78
2023-04-04T16:59:17.234Z,2.92
2023-04-04T17:04:19.827Z,3.63
2023-04-04T17:09:23.445Z,2.58
2023-04-04T17:14:25.934Z,2.50
2023-04-04T17:19:29.245Z,2.75
2023-04-04T17:24:32.790Z,2.50
2023-04-04T17:29:34.931Z,2.17
2023-04-04T17:34:37.074Z,2.65
2023-04-04T17:39:40.720Z,2.35
2023-04-04T17:44:43.068Z,2.40
2023-04-04T17:49:45.157Z,3.15
2023-04-04T17:54:48.673Z,2.67
2023-04-04T17:59:52.167Z,2.90
2023-04-04T18:04:54.303Z,3.15
2023-04-04T18:09:57.801Z,2.92
2023-04-04T18:14:59.972Z,5.35
2023-04-04T18:20:02.288Z,3.22
2023-04-04T18:25:07.117Z,3.35
2023-04-04T18:30:10.147Z,2.90
2023-04-04T18:35:12.295Z,4.10
2023-04-04T18:40:16.038Z,3.88
2023-04-04T18:45:19.442Z,3.78
2023-04-04T18:50:23.157Z,4.25
2023-04-04T18:55:26.756Z,2.92
2023-04-04T19:00:28.884Z,3.75
2023-04-04T19:05:34.020Z,3.50
2023-04-04T19:10:39.249Z,3.42
2023-04-04T19:15:42.202Z,3.17
2023-04-04T19:20:44.746Z,3.10
2023-04-04T19:25:48.248Z,3.40
2023-04-04T19:30:50.426Z,3.00
2023-04-04T19:35:54.845Z,3.38
2023-04-04T19:41:00.705Z,2.95
2023-04-04T19:46:08.229Z,3.40
2023-04-04T19:51:12.525Z,3.40
2023-04-04T19:56:18.279Z,3.95
2023-04-04T20:01:23.286Z,4.07
2023-04-04T20:06:26.686Z,4.28
2023-04-04T20:11:31.457Z,3.65
2023-04-04T20:16:34.581Z,5.10
2023-04-04T20:21:36.641Z,4.85
2023-04-04T20:26:50.785Z,4.43
2023-04-04T20:31:54.371Z,4.43
2023-04-04T20:36:56.481Z,3.70
2023-04-04T20:41:59.990Z,3.67
2023-04-04T20:47:02.198Z,3.50
2023-04-04T20:52:06.622Z,3.22
2023-04-04T20:57:13.204Z,3.63
2023-04-04T21:02:16.373Z,3.58
2023-04-04T21:07:40.220Z,3.55
2023-04-04T21:12:43.856Z,3.83
2023-04-04T21:17:45.954Z,4.30
2023-04-04T21:22:51.250Z,4.38
2023-04-04T21:27:56.281Z,4.25
2023-04-04T21:32:58.388Z,3.58
2023-04-04T21:38:00.576Z,3.83
2023-04-04T21:43:04.213Z,3.90
2023-04-04T21:48:12.057Z,3.95
2023-04-04T21:53:14.356Z,3.90
2023-04-04T21:58:19.733Z,4.22
2023-04-04T22:03:21.833Z,4.00
2023-04-04T22:08:23.982Z,3.90
2023-04-04T22:13:27.441Z,3.75
2023-04-04T22:18:33.370Z,3.80
2023-04-04T22:23:35.754Z,3.90
2023-04-04T22:28:40.006Z,3.53
2023-04-04T22:33:42.250Z,4.18
2023-04-04T22:38:44.351Z,4.07
2023-04-04T22:43:47.838Z,3.80
2023-04-04T22:48:49.887Z,4.40
2023-04-04T22:53:52.013Z,4.30
2023-04-04T22:58:55.628Z,4.40
2023-04-04T23:03:57.849Z,4.53
2023-04-04T23:09:00.101Z,3.92
2023-04-04T23:14:04.367Z,3.95
2023-04-04T23:19:06.676Z,4.15
2023-04-04T23:24:08.928Z,4.15
2023-04-04T23:29:12.425Z,3.63
2023-04-04T23:34:14.557Z,3.55
2023-04-04T23:39:16.755Z,3.60
2023-04-04T23:44:21.961Z,3.67
2023-04-04T23:49:25.756Z,4.00
2023-04-04T23:54:27.897Z,4.38
2023-04-04T23:59:31.580Z,3.80
